createdAt,value
2017-04-29T00:00:19.221Z,1.38
2017-04-29T00:02:50.142Z,2.78
2017-04-29T00:05:20.804Z,1.98
2017-04-29T00:07:51.791Z,1.54
2017-04-29T00:10:22.813Z,3.32
2017-04-29T00:12:53.810Z,2.00
2017-04-29T00:15:24.507Z,2.02
2017-04-29T00:17:55.445Z,1.90
2017-04-29T00:20:26.296Z,1.98
2017-04-29T00:22:57.241Z,1.22
2017-04-29T00:25:27.894Z,1.02
2017-04-29T00:27:58.884Z,3.40
2017-04-29T00:30:29.638Z,2.20
2017-04-29T00:33:00.612Z,1.94
2017-04-29T00:35:32.395Z,1.14
2017-04-29T00:38:03.780Z,4.40
2017-04-29T00:40:34.858Z,3.06
2017-04-29T00:43:05.911Z,3.14
2017-04-29T00:45:36.727Z,1.30
2017-04-29T00:48:08.448Z,3.40
2017-04-29T00:50:39.396Z,4.14
2017-04-29T00:53:10.322Z,2.24
2017-04-29T00:55:41.245Z,1.12
2017-04-29T00:58:12.131Z,2.02
2017-04-29T01:00:43.226Z,1.46
2017-04-29T01:03:15.401Z,1.02
2017-04-29T01:05:46.584Z,4.14
2017-04-29T01:08:17.306Z,1.10
2017-04-29T01:10:47.996Z,2.60
2017-04-29T01:13:18.968Z,4.40
2017-04-29T01:15:50.795Z,3.02
2017-04-29T01:18:21.800Z,1.40
2017-04-29T01:20:52.676Z,2.46
2017-04-29T01:23:23.287Z,1.42
2017-04-29T01:25:53.799Z,1.60
2017-04-29T01:28:25.404Z,1.92
2017-04-29T01:30:56.181Z,1.42
2017-04-29T01:33:27.260Z,2.38
2017-04-29T01:35:57.724Z,2.04
2017-04-29T01:38:28.546Z,2.22
2017-04-29T01:40:59.556Z,3.34
2017-04-29T01:43:30.400Z,3.10
2017-04-29T01:46:00.405Z,3.58
2017-04-29T01:48:32.207Z,1.32
2017-04-29T01:51:02.992Z,4.26
2017-04-29T01:53:33.102Z,2.70
2017-04-29T01:56:04.058Z,3.76
2017-04-29T01:58:35.119Z,7.34
2017-04-29T02:01:05.806Z,3.06
2017-04-29T02:03:36.681Z,6.32
2017-04-29T02:06:07.458Z,2.00
2017-04-29T02:08:38.360Z,2.14
2017-04-29T02:11:09.412Z,2.82
2017-04-29T02:13:40.138Z,3.80
2017-04-29T02:16:10.870Z,3.60
2017-04-29T02:18:41.783Z,2.44
2017-04-29T02:21:12.843Z,1.98
2017-04-29T02:23:43.752Z,5.96
2017-04-29T02:26:14.702Z,1.18
2017-04-29T02:28:45.648Z,1.80
2017-04-29T02:31:16.788Z,3.40
2017-04-29T02:33:48.165Z,2.86
2017-04-29T02:36:18.890Z,4.14
2017-04-29T02:38:49.820Z,1.42
2017-04-29T02:41:20.753Z,2.42
2017-04-29T02:43:51.454Z,1.88
2017-04-29T02:46:22.261Z,2.54
2017-04-29T02:48:53.902Z,10.36
2017-04-29T02:51:24.389Z,2.00
2017-04-29T02:53:55.258Z,4.44
2017-04-29T02:56:26.064Z,1.78
2017-04-29T02:58:56.833Z,2.52
2017-04-29T03:01:27.716Z,2.52
2017-04-29T03:03:58.000Z,2.16
2017-04-29T03:06:28.849Z,2.68
2017-04-29T03:08:59.551Z,2.34
2017-04-29T03:11:30.290Z,3.46
2017-04-29T03:14:01.087Z,3.24
2017-04-29T03:16:31.930Z,7.28
2017-04-29T03:19:02.474Z,2.08
2017-04-29T03:21:33.254Z,3.00
2017-04-29T03:24:04.063Z,2.82
2017-04-29T03:26:35.114Z,2.72
2017-04-29T03:29:05.929Z,3.28
2017-04-29T03:31:36.819Z,3.24
2017-04-29T03:34:08.562Z,3.40
2017-04-29T03:36:39.421Z,2.30
2017-04-29T03:39:10.356Z,4.90
2017-04-29T03:41:41.175Z,6.62
2017-04-29T03:44:12.273Z,4.30
2017-04-29T03:46:43.788Z,4.88
2017-04-29T03:49:15.967Z,6.38
2017-04-29T03:51:46.799Z,5.00
2017-04-29T03:54:17.803Z,3.92
2017-04-29T03:56:48.718Z,4.08
2017-04-29T03:59:19.777Z,5.14
2017-04-29T04:01:50.566Z,5.88
2017-04-29T04:04:21.884Z,5.92
2017-04-29T04:06:52.679Z,6.22
2017-04-29T04:09:24.086Z,4.48
2017-04-29T04:11:54.633Z,8.04
2017-04-29T04:14:25.438Z,5.76
2017-04-29T04:16:56.163Z,6.08
2017-04-29T04:19:27.095Z,4.86
2017-04-29T04:21:57.663Z,4.88
2017-04-29T04:24:28.384Z,6.04
2017-04-29T04:26:59.192Z,4.62
2017-04-29T04:29:30.015Z,4.06
2017-04-29T04:32:00.655Z,4.22
2017-04-29T04:34:31.501Z,5.44
2017-04-29T04:37:02.281Z,7.66
2017-04-29T04:39:33.116Z,5.60
2017-04-29T04:42:03.770Z,7.68
2017-04-29T04:44:34.876Z,5.64
2017-04-29T04:47:05.385Z,5.80
2017-04-29T04:49:37.039Z,7.24
2017-04-29T04:52:07.678Z,4.58
2017-04-29T04:54:38.701Z,4.74
2017-04-29T04:57:09.515Z,5.28
2017-04-29T04:59:40.248Z,7.88
2017-04-29T05:02:10.828Z,4.32
2017-04-29T05:04:41.694Z,5.50
2017-04-29T05:07:12.055Z,8.48
2017-04-29T05:09:42.987Z,5.94
2017-04-29T05:12:14.089Z,4.32
2017-04-29T05:14:44.811Z,3.10
2017-04-29T05:17:15.784Z,6.48
2017-04-29T05:19:46.365Z,8.06
2017-04-29T05:22:17.171Z,7.54
2017-04-29T05:24:48.183Z,4.52
2017-04-29T05:27:19.119Z,5.60
2017-04-29T05:29:52.227Z,6.28
2017-04-29T05:32:22.902Z,6.20
2017-04-29T05:34:53.981Z,3.02
2017-04-29T05:37:24.772Z,8.44
2017-04-29T05:39:55.812Z,6.38
2017-04-29T05:42:26.735Z,6.24
2017-04-29T05:44:57.750Z,6.80
2017-04-29T05:47:28.662Z,5.08
2017-04-29T05:50:01.100Z,4.30
2017-04-29T05:52:31.978Z,7.58
2017-04-29T05:55:02.849Z,5.30
2017-04-29T05:57:33.418Z,3.98
2017-04-29T06:00:03.658Z,5.20
2017-04-29T06:02:34.659Z,2.92
2017-04-29T06:05:05.401Z,3.92
2017-04-29T06:07:36.313Z,7.38
2017-04-29T06:10:07.177Z,9.98
2017-04-29T06:12:38.080Z,3.56
2017-04-29T06:15:09.879Z,6.95
2017-04-29T06:17:40.775Z,6.44
2017-04-29T06:20:11.317Z,6.28
2017-04-29T06:22:42.452Z,5.32
2017-04-29T06:25:13.555Z,7.00
2017-04-29T06:27:44.422Z,4.58
2017-04-29T06:30:15.194Z,6.96
2017-04-29T06:32:45.851Z,6.48
2017-04-29T06:35:17.095Z,4.00
2017-04-29T06:37:47.871Z,8.90
2017-04-29T06:40:18.795Z,5.82
2017-04-29T06:42:50.316Z,8.10
2017-04-29T06:45:21.076Z,4.18
2017-04-29T06:47:52.040Z,7.94
2017-04-29T06:50:24.273Z,9.70
2017-04-29T06:52:54.878Z,5.88
2017-04-29T06:55:25.799Z,5.68
2017-04-29T06:57:56.667Z,6.22
2017-04-29T07:00:27.697Z,7.04
2017-04-29T07:02:58.769Z,5.52
2017-04-29T07:05:29.865Z,7.80
2017-04-29T07:08:00.690Z,6.37
2017-04-29T07:10:31.649Z,8.55
2017-04-29T07:13:02.426Z,6.78
2017-04-29T07:15:33.229Z,5.98
2017-04-29T07:18:04.097Z,3.73
2017-04-29T07:20:34.824Z,9.40
2017-04-29T07:23:05.714Z,7.23
2017-04-29T07:25:36.656Z,8.74
2017-04-29T07:28:07.431Z,9.88
2017-04-29T07:30:38.246Z,4.98
2017-04-29T07:33:09.167Z,5.90
2017-04-29T07:35:39.967Z,6.22
2017-04-29T07:38:10.683Z,8.25
2017-04-29T07:40:41.662Z,13.80
2017-04-29T07:43:13.268Z,7.67
2017-04-29T07:45:43.962Z,9.85
2017-04-29T07:48:14.838Z,4.17
2017-04-29T07:50:46.583Z,7.55
2017-04-29T07:53:17.306Z,7.13
2017-04-29T07:55:47.972Z,6.18
2017-04-29T07:58:18.661Z,4.38
2017-04-29T08:00:49.487Z,9.58
2017-04-29T08:03:20.242Z,5.04
2017-04-29T08:05:50.980Z,7.93
2017-04-29T08:08:21.525Z,5.96
2017-04-29T08:10:52.497Z,5.78
2017-04-29T08:13:23.180Z,8.65
2017-04-29T08:15:53.966Z,9.92
2017-04-29T08:18:24.513Z,5.77
2017-04-29T08:20:56.038Z,10.48
2017-04-29T08:23:26.549Z,2.97
2017-04-29T08:25:57.373Z,8.82
2017-04-29T08:28:28.254Z,8.02
2017-04-29T08:30:58.846Z,5.68
2017-04-29T08:33:29.934Z,8.50
2017-04-29T08:36:00.950Z,8.90
2017-04-29T08:38:31.619Z,6.38
2017-04-29T08:41:02.476Z,6.83
2017-04-29T08:43:33.433Z,5.62
2017-04-29T08:46:04.243Z,5.42
2017-04-29T08:48:35.046Z,15.23
2017-04-29T08:51:07.738Z,9.60
2017-04-29T08:53:38.581Z,8.12
2017-04-29T08:56:09.559Z,8.50
2017-04-29T08:58:40.298Z,8.30
2017-04-29T09:01:11.083Z,7.25
2017-04-29T09:03:42.092Z,8.32
2017-04-29T09:06:12.648Z,9.07
2017-04-29T09:08:43.184Z,3.83
2017-04-29T09:11:14.183Z,9.13
2017-04-29T09:13:45.018Z,6.43
2017-04-29T09:16:15.835Z,5.60
2017-04-29T09:18:46.660Z,8.32
2017-04-29T09:21:17.761Z,6.83
2017-04-29T09:23:48.571Z,6.72
2017-04-29T09:26:19.507Z,9.43
2017-04-29T09:28:50.225Z,8.82
2017-04-29T09:31:21.627Z,6.07
2017-04-29T09:33:52.485Z,5.58
2017-04-29T09:36:23.551Z,7.02
2017-04-29T09:38:54.258Z,6.37
2017-04-29T09:41:25.281Z,8.53
2017-04-29T09:43:55.876Z,6.75
2017-04-29T09:46:27.754Z,6.47
2017-04-29T09:48:58.262Z,7.87
2017-04-29T09:51:30.422Z,7.65
2017-04-29T09:54:04.275Z,7.85
2017-04-29T09:56:35.868Z,7.63
2017-04-29T09:59:06.643Z,13.58
2017-04-29T10:01:37.284Z,6.92
2017-04-29T10:04:07.962Z,6.05
2017-04-29T10:06:38.841Z,7.80
2017-04-29T10:09:09.559Z,4.27
2017-04-29T10:11:40.363Z,4.88
2017-04-29T10:14:11.272Z,3.80
2017-04-29T10:16:42.803Z,5.02
2017-04-29T10:19:13.771Z,11.07
2017-04-29T10:21:44.691Z,9.52
2017-04-29T10:24:15.280Z,11.15
2017-04-29T10:26:46.042Z,7.70
2017-04-29T10:29:16.655Z,4.30
2017-04-29T10:31:47.419Z,5.75
2017-04-29T10:34:18.243Z,7.92
2017-04-29T10:36:49.142Z,12.50
2017-04-29T10:39:20.798Z,5.17
2017-04-29T10:41:51.755Z,8.92
2017-04-29T10:44:22.713Z,7.22
2017-04-29T10:46:53.697Z,10.85
2017-04-29T10:49:25.301Z,7.42
2017-04-29T10:51:57.151Z,8.43
2017-04-29T10:54:28.025Z,4.85
2017-04-29T10:56:58.971Z,13.58
2017-04-29T10:59:29.578Z,5.00
2017-04-29T11:02:00.043Z,7.45
2017-04-29T11:04:30.482Z,5.90
2017-04-29T11:07:01.436Z,4.25
2017-04-29T11:09:32.416Z,11.78
2017-04-29T11:12:03.271Z,8.60
2017-04-29T11:14:33.865Z,8.83
2017-04-29T11:17:04.554Z,7.93
2017-04-29T11:19:35.226Z,10.48
2017-04-29T11:22:06.139Z,8.52
2017-04-29T11:24:36.472Z,12.05
2017-04-29T11:27:07.437Z,8.57
2017-04-29T11:29:37.950Z,10.87
2017-04-29T11:32:08.551Z,6.35
2017-04-29T11:34:39.448Z,12.20
2017-04-29T11:37:10.010Z,9.23
2017-04-29T11:39:40.877Z,8.07
2017-04-29T11:42:11.886Z,12.55
2017-04-29T11:44:42.083Z,6.53
2017-04-29T11:47:13.326Z,7.68
2017-04-29T11:49:44.117Z,7.77
2017-04-29T11:52:15.740Z,7.48
2017-04-29T11:54:46.649Z,4.23
2017-04-29T11:57:17.356Z,7.08
2017-04-29T11:59:48.298Z,8.93
2017-04-29T12:02:19.116Z,7.68
2017-04-29T12:04:49.798Z,10.58
2017-04-29T12:07:23.536Z,10.03
2017-04-29T12:09:55.229Z,11.23
2017-04-29T12:12:26.047Z,10.38
2017-04-29T12:14:56.747Z,9.60
2017-04-29T12:17:27.581Z,12.35
2017-04-29T12:19:57.967Z,10.53
2017-04-29T12:22:28.878Z,8.33
2017-04-29T12:25:00.151Z,6.20
2017-04-29T12:27:31.020Z,11.97
2017-04-29T12:30:01.925Z,19.25
2017-04-29T12:32:32.791Z,14.98
2017-04-29T12:35:03.584Z,20.15
2017-04-29T12:37:34.524Z,11.05
2017-04-29T12:40:05.254Z,6.70
2017-04-29T12:42:36.127Z,11.78
2017-04-29T12:45:06.896Z,10.88
2017-04-29T12:47:37.889Z,13.32
2017-04-29T12:50:08.510Z,11.20
2017-04-29T12:52:40.355Z,11.87
2017-04-29T12:55:11.346Z,9.27
2017-04-29T12:57:42.228Z,9.50
2017-04-29T13:00:13.302Z,9.32
2017-04-29T13:02:44.054Z,9.12
2017-04-29T13:05:14.647Z,9.48
2017-04-29T13:07:45.352Z,8.70
2017-04-29T13:10:16.455Z,7.38
2017-04-29T13:12:47.443Z,13.82
2017-04-29T13:15:19.148Z,5.40
2017-04-29T13:17:50.088Z,8.37
2017-04-29T13:20:20.909Z,9.97
2017-04-29T13:22:51.739Z,8.77
2017-04-29T13:25:22.377Z,10.37
2017-04-29T13:27:53.361Z,12.00
2017-04-29T13:30:24.233Z,11.67
2017-04-29T13:32:55.048Z,13.18
2017-04-29T13:35:26.576Z,13.07
2017-04-29T13:37:57.398Z,26.83
2017-04-29T13:40:27.903Z,22.80
2017-04-29T13:42:59.339Z,14.52
2017-04-29T13:45:30.767Z,14.45
2017-04-29T13:48:01.587Z,13.25
2017-04-29T13:50:32.309Z,13.95
2017-04-29T13:53:04.053Z,20.28
2017-04-29T13:55:34.777Z,18.67
2017-04-29T13:58:05.692Z,18.60
2017-04-29T14:00:36.230Z,15.85
2017-04-29T14:03:07.174Z,14.03
2017-04-29T14:05:38.066Z,13.42
2017-04-29T14:08:09.021Z,13.97
2017-04-29T14:10:39.963Z,13.90
2017-04-29T14:13:11.678Z,14.58
2017-04-29T14:15:42.242Z,15.03
2017-04-29T14:18:12.911Z,23.17
2017-04-29T14:20:43.525Z,21.16
2017-04-29T14:23:14.610Z,15.26
2017-04-29T14:25:45.458Z,14.64
2017-04-29T14:28:16.612Z,12.26
2017-04-29T14:30:47.326Z,8.14
2017-04-29T14:33:18.201Z,8.72
2017-04-29T14:35:49.015Z,11.74
2017-04-29T14:38:19.639Z,9.96
2017-04-29T14:40:50.414Z,10.36
2017-04-29T14:43:21.363Z,14.30
2017-04-29T14:45:52.321Z,13.76
2017-04-29T14:48:23.253Z,10.92
2017-04-29T14:50:54.174Z,16.06
2017-04-29T14:53:25.638Z,15.86
2017-04-29T14:55:56.301Z,10.88
2017-04-29T14:58:27.250Z,9.30
2017-04-29T15:00:58.001Z,12.18
2017-04-29T15:03:28.892Z,12.52
2017-04-29T15:05:59.677Z,12.90
2017-04-29T15:08:30.334Z,16.62
2017-04-29T15:11:01.089Z,14.80
2017-04-29T15:13:31.921Z,12.40
2017-04-29T15:16:03.578Z,10.26
2017-04-29T15:18:34.562Z,8.02
2017-04-29T15:21:05.542Z,9.32
2017-04-29T15:23:36.432Z,7.94
2017-04-29T15:26:07.278Z,9.32
2017-04-29T15:28:38.100Z,10.68
2017-04-29T15:31:09.090Z,11.16
2017-04-29T15:33:39.810Z,7.90
2017-04-29T15:36:11.485Z,8.92
2017-04-29T15:38:42.583Z,6.98
2017-04-29T15:41:13.306Z,8.16
2017-04-29T15:43:43.898Z,7.98
2017-04-29T15:46:14.560Z,8.42
2017-04-29T15:48:45.389Z,6.90
2017-04-29T15:51:16.240Z,10.28
2017-04-29T15:53:47.561Z,10.08
2017-04-29T15:56:18.280Z,9.46
2017-04-29T15:58:48.421Z,6.22
2017-04-29T16:01:18.487Z,5.50
2017-04-29T16:03:48.529Z,6.96
2017-04-29T16:06:18.583Z,6.62
2017-04-29T16:08:48.669Z,6.38
2017-04-29T16:11:19.475Z,5.14
2017-04-29T16:13:50.302Z,9.84
2017-04-29T16:16:20.286Z,7.92
2017-04-29T16:18:50.624Z,6.94
2017-04-29T16:21:20.733Z,9.66
2017-04-29T16:23:50.848Z,9.46
2017-04-29T16:26:21.518Z,10.98
2017-04-29T16:28:52.220Z,8.48
2017-04-29T16:31:23.008Z,9.52
2017-04-29T16:33:53.571Z,9.48
2017-04-29T16:36:24.327Z,12.02
2017-04-29T16:38:55.098Z,9.80
2017-04-29T16:41:25.959Z,12.86
2017-04-29T16:43:57.642Z,13.82
2017-04-29T16:46:28.286Z,13.44
2017-04-29T16:48:58.473Z,14.48
2017-04-29T16:51:29.364Z,9.98
2017-04-29T16:54:01.113Z,11.46
2017-04-29T16:56:31.650Z,12.16
2017-04-29T16:59:02.207Z,12.40
2017-04-29T17:01:32.920Z,12.58
2017-04-29T17:04:03.785Z,12.88
2017-04-29T17:06:34.371Z,14.84
2017-04-29T17:09:05.208Z,14.26
2017-04-29T17:11:36.257Z,11.96
2017-04-29T17:14:06.997Z,8.88
2017-04-29T17:16:37.922Z,16.96
2017-04-29T17:19:08.834Z,11.92
2017-04-29T17:21:39.505Z,12.00
2017-04-29T17:24:10.771Z,12.42
2017-04-29T17:26:41.390Z,11.48
2017-04-29T17:29:12.010Z,13.02
2017-04-29T17:31:42.598Z,11.48
2017-04-29T17:34:13.623Z,10.98
2017-04-29T17:36:44.631Z,13.64
2017-04-29T17:39:15.542Z,10.22
2017-04-29T17:41:46.348Z,14.72
2017-04-29T17:44:17.121Z,12.50
2017-04-29T17:46:47.822Z,12.14
2017-04-29T17:49:18.669Z,10.16
2017-04-29T17:51:49.637Z,7.52
2017-04-29T17:54:21.256Z,9.32
2017-04-29T17:56:52.200Z,9.72
2017-04-29T17:59:23.160Z,12.34
2017-04-29T18:01:53.974Z,8.88
2017-04-29T18:04:25.611Z,7.44
2017-04-29T18:06:56.414Z,7.70
2017-04-29T18:09:27.365Z,8.40
2017-04-29T18:11:58.467Z,11.70
2017-04-29T18:14:29.312Z,7.76
2017-04-29T18:17:00.007Z,10.90
2017-04-29T18:19:31.088Z,8.36
2017-04-29T18:22:01.624Z,8.18
2017-04-29T18:24:32.789Z,3.78
2017-04-29T18:27:03.845Z,5.86
2017-04-29T18:29:34.693Z,3.98
2017-04-29T18:32:05.343Z,5.62
2017-04-29T18:34:36.009Z,4.42
2017-04-29T18:37:06.828Z,4.56
2017-04-29T18:39:37.723Z,4.98
2017-04-29T18:42:09.358Z,5.62
2017-04-29T18:44:40.279Z,3.66
2017-04-29T18:47:10.917Z,3.04
2017-04-29T18:49:41.145Z,2.94
2017-04-29T18:52:11.515Z,3.78
2017-04-29T18:54:43.186Z,5.02
2017-04-29T18:57:13.949Z,4.34
2017-04-29T18:59:44.785Z,3.76
2017-04-29T19:02:15.622Z,3.04
2017-04-29T19:04:46.608Z,2.54
2017-04-29T19:07:17.241Z,5.10
2017-04-29T19:09:47.940Z,4.00
2017-04-29T19:12:18.593Z,2.26
2017-04-29T19:14:49.608Z,3.76
2017-04-29T19:17:20.212Z,3.14
2017-04-29T19:19:50.992Z,5.32
2017-04-29T19:22:21.873Z,3.90
2017-04-29T19:24:52.871Z,2.42
2017-04-29T19:27:23.690Z,3.78
2017-04-29T19:29:54.315Z,2.60
2017-04-29T19:32:25.149Z,5.36
2017-04-29T19:34:55.800Z,5.40
2017-04-29T19:37:26.710Z,5.26
2017-04-29T19:39:57.495Z,3.74
2017-04-29T19:42:28.114Z,3.84
2017-04-29T19:44:58.443Z,3.34
2017-04-29T19:47:29.493Z,2.72
2017-04-29T19:50:00.167Z,3.66
2017-04-29T19:52:30.948Z,4.72
2017-04-29T19:55:02.947Z,3.74
2017-04-29T19:57:33.929Z,2.42
2017-04-29T20:00:04.803Z,2.66
2017-04-29T20:02:35.365Z,4.34
2017-04-29T20:05:06.831Z,3.96
2017-04-29T20:07:37.685Z,2.18
2017-04-29T20:10:08.203Z,3.56
2017-04-29T20:12:39.000Z,3.78
2017-04-29T20:15:09.773Z,2.54
2017-04-29T20:17:40.507Z,4.42
2017-04-29T20:20:11.167Z,4.46
2017-04-29T20:22:42.105Z,3.32
2017-04-29T20:25:13.202Z,4.98
2017-04-29T20:27:45.536Z,2.48
2017-04-29T20:30:16.575Z,3.72
2017-04-29T20:32:47.795Z,2.62
2017-04-29T20:35:18.699Z,3.30
2017-04-29T20:37:49.574Z,3.62
2017-04-29T20:40:20.065Z,6.18
2017-04-29T20:42:51.789Z,2.28
2017-04-29T20:45:24.206Z,5.10
2017-04-29T20:47:55.473Z,5.88
2017-04-29T20:50:26.729Z,3.14
2017-04-29T20:52:57.659Z,3.06
2017-04-29T20:55:29.512Z,3.34
2017-04-29T20:58:00.017Z,4.04
2017-04-29T21:00:30.982Z,5.50
2017-04-29T21:03:01.769Z,2.30
2017-04-29T21:05:32.753Z,2.04
2017-04-29T21:08:03.722Z,5.12
2017-04-29T21:10:34.468Z,2.04
2017-04-29T21:13:05.142Z,3.42
2017-04-29T21:15:35.847Z,5.38
2017-04-29T21:18:06.715Z,4.50
2017-04-29T21:20:37.749Z,2.08
2017-04-29T21:23:08.378Z,2.18
2017-04-29T21:25:39.463Z,3.62
2017-04-29T21:28:10.188Z,2.60
2017-04-29T21:30:40.923Z,3.54
2017-04-29T21:33:11.862Z,5.44
2017-04-29T21:35:42.932Z,3.04
2017-04-29T21:38:14.028Z,2.36
2017-04-29T21:40:44.668Z,2.40
2017-04-29T21:43:15.385Z,3.02
2017-04-29T21:45:46.272Z,2.80
2017-04-29T21:48:17.310Z,3.30
2017-04-29T21:50:48.270Z,2.90
2017-04-29T21:53:18.984Z,5.12
2017-04-29T21:55:51.368Z,3.58
2017-04-29T21:58:22.138Z,3.40
2017-04-29T22:00:53.795Z,2.40
2017-04-29T22:03:24.551Z,4.54
2017-04-29T22:05:55.547Z,5.60
2017-04-29T22:08:26.816Z,2.32
2017-04-29T22:10:57.733Z,2.38
2017-04-29T22:13:28.630Z,3.20
2017-04-29T22:15:59.712Z,4.28
2017-04-29T22:18:30.787Z,3.40
2017-04-29T22:21:01.477Z,2.94
2017-04-29T22:23:32.817Z,4.42
2017-04-29T22:26:03.573Z,4.72
2017-04-29T22:28:34.686Z,7.42
2017-04-29T22:31:05.994Z,3.18
2017-04-29T22:33:36.684Z,3.38
2017-04-29T22:36:07.816Z,4.02
2017-04-29T22:38:38.699Z,3.32
2017-04-29T22:41:09.364Z,3.02
2017-04-29T22:43:39.975Z,3.16
2017-04-29T22:46:10.588Z,4.74
2017-04-29T22:48:41.629Z,4.50
2017-04-29T22:51:12.301Z,5.02
2017-04-29T22:53:42.889Z,5.28
2017-04-29T22:56:14.815Z,5.32
2017-04-29T22:58:45.827Z,3.90
2017-04-29T23:01:16.636Z,3.36
2017-04-29T23:03:47.435Z,4.58
2017-04-29T23:06:18.441Z,2.92
2017-04-29T23:08:48.961Z,3.56
2017-04-29T23:11:19.606Z,4.20
2017-04-29T23:13:50.150Z,5.84
2017-04-29T23:16:21.324Z,2.76
2017-04-29T23:18:52.053Z,2.60
2017-04-29T23:21:22.862Z,4.06
2017-04-29T23:23:53.721Z,3.60
2017-04-29T23:26:24.723Z,2.90
2017-04-29T23:28:55.522Z,4.24
2017-04-29T23:31:26.566Z,3.48
2017-04-29T23:33:57.977Z,2.46
2017-04-29T23:36:28.757Z,4.22
2017-04-29T23:38:59.787Z,2.38
2017-04-29T23:41:30.497Z,2.74
2017-04-29T23:44:01.231Z,3.16
2017-04-29T23:46:32.135Z,2.80
2017-04-29T23:49:02.951Z,2.90
2017-04-29T23:51:33.769Z,2.22
2017-04-29T23:54:05.351Z,4.22
2017-04-29T23:56:37.387Z,4.10
2017-04-29T23:59:08.467Z,2.50
